sensor_id;sensor_type;location;lat;lon;timestamp;P1;durP1;ratioP1;P2;durP2;ratioP2
22072;SDS011;11202;50.916;4.698;2022-10-16T00:00:43;3.40;;;1.33;;
22072;SDS011;11202;50.916;4.698;2022-10-16T00:03:09;3.38;;;1.27;;
22072;SDS011;11202;50.916;4.698;2022-10-16T00:05:41;2.93;;;1.47;;
22072;SDS011;11202;50.916;4.698;2022-10-16T00:08:11;1.48;;;1.27;;
22072;SDS011;11202;50.916;4.698;2022-10-16T00:10:39;5.20;;;1.40;;
22072;SDS011;11202;50.916;4.698;2022-10-16T00:13:06;3.47;;;1.30;;
22072;SDS011;11202;50.916;4.698;2022-10-16T00:15:33;3.97;;;1.40;;
22072;SDS011;11202;50.916;4.698;2022-10-16T00:18:01;3.78;;;1.60;;
22072;SDS011;11202;50.916;4.698;2022-10-16T00:20:28;6.97;;;1.65;;
22072;SDS011;11202;50.916;4.698;2022-10-16T00:22:53;3.53;;;1.63;;
22072;SDS011;11202;50.916;4.698;2022-10-16T00:25:19;2.53;;;1.30;;
22072;SDS011;11202;50.916;4.698;2022-10-16T00:27:45;1.60;;;1.10;;
22072;SDS011;11202;50.916;4.698;2022-10-16T00:30:13;1.23;;;1.13;;
22072;SDS011;11202;50.916;4.698;2022-10-16T00:32:39;1.42;;;1.10;;
22072;SDS011;11202;50.916;4.698;2022-10-16T00:35:06;2.67;;;1.15;;
22072;SDS011;11202;50.916;4.698;2022-10-16T00:37:32;6.45;;;1.05;;
22072;SDS011;11202;50.916;4.698;2022-10-16T00:39:58;3.05;;;1.30;;
22072;SDS011;11202;50.916;4.698;2022-10-16T00:42:24;1.33;;;1.20;;
22072;SDS011;11202;50.916;4.698;2022-10-16T00:44:53;1.10;;;1.00;;
22072;SDS011;11202;50.916;4.698;2022-10-16T00:47:26;1.30;;;1.17;;
22072;SDS011;11202;50.916;4.698;2022-10-16T00:50:06;4.43;;;1.40;;
22072;SDS011;11202;50.916;4.698;2022-10-16T00:52:45;1.42;;;1.08;;
22072;SDS011;11202;50.916;4.698;2022-10-16T00:55:13;2.47;;;1.20;;
22072;SDS011;11202;50.916;4.698;2022-10-16T00:57:42;2.15;;;1.10;;
22072;SDS011;11202;50.916;4.698;2022-10-16T01:00:10;3.25;;;1.58;;
22072;SDS011;11202;50.916;4.698;2022-10-16T01:02:38;1.35;;;1.17;;
22072;SDS011;11202;50.916;4.698;2022-10-16T01:05:06;2.30;;;1.10;;
22072;SDS011;11202;50.916;4.698;2022-10-16T01:10:36;3.35;;;1.40;;
22072;SDS011;11202;50.916;4.698;2022-10-16T01:13:19;1.20;;;1.10;;
22072;SDS011;11202;50.916;4.698;2022-10-16T01:15:52;4.05;;;1.38;;
22072;SDS011;11202;50.916;4.698;2022-10-16T01:18:50;3.65;;;1.27;;
22072;SDS011;11202;50.916;4.698;2022-10-16T01:21:22;1.55;;;1.27;;
22072;SDS011;11202;50.916;4.698;2022-10-16T01:27:18;3.63;;;1.30;;
22072;SDS011;11202;50.916;4.698;2022-10-16T01:32:40;4.20;;;1.40;;
22072;SDS011;11202;50.916;4.698;2022-10-16T01:35:25;4.20;;;1.52;;
22072;SDS011;11202;50.916;4.698;2022-10-16T01:38:03;1.67;;;1.35;;
22072;SDS011;11202;50.916;4.698;2022-10-16T01:40:31;5.47;;;1.45;;
22072;SDS011;11202;50.916;4.698;2022-10-16T01:43:19;2.45;;;1.45;;
22072;SDS011;11202;50.916;4.698;2022-10-16T01:45:50;1.98;;;1.38;;
22072;SDS011;11202;50.916;4.698;2022-10-16T01:48:18;4.15;;;1.50;;
22072;SDS011;11202;50.916;4.698;2022-10-16T01:50:48;3.65;;;1.60;;
22072;SDS011;11202;50.916;4.698;2022-10-16T01:53:39;3.28;;;1.48;;
22072;SDS011;11202;50.916;4.698;2022-10-16T01:56:09;7.10;;;1.90;;
22072;SDS011;11202;50.916;4.698;2022-10-16T01:58:39;6.03;;;1.60;;
22072;SDS011;11202;50.916;4.698;2022-10-16T02:01:12;2.08;;;1.70;;
22072;SDS011;11202;50.916;4.698;2022-10-16T02:03:41;2.30;;;1.40;;
22072;SDS011;11202;50.916;4.698;2022-10-16T02:06:10;3.00;;;1.63;;
22072;SDS011;11202;50.916;4.698;2022-10-16T02:08:36;2.90;;;1.50;;
22072;SDS011;11202;50.916;4.698;2022-10-16T02:11:03;3.00;;;1.60;;
22072;SDS011;11202;50.916;4.698;2022-10-16T02:13:30;2.50;;;1.65;;
22072;SDS011;11202;50.916;4.698;2022-10-16T02:16:00;4.05;;;1.52;;
22072;SDS011;11202;50.916;4.698;2022-10-16T02:18:26;4.75;;;1.98;;
22072;SDS011;11202;50.916;4.698;2022-10-16T02:20:59;4.20;;;1.90;;
22072;SDS011;11202;50.916;4.698;2022-10-16T02:26:11;3.17;;;1.50;;
22072;SDS011;11202;50.916;4.698;2022-10-16T02:28:48;3.05;;;1.60;;
22072;SDS011;11202;50.916;4.698;2022-10-16T02:31:22;2.35;;;1.48;;
22072;SDS011;11202;50.916;4.698;2022-10-16T02:33:52;1.60;;;1.50;;
22072;SDS011;11202;50.916;4.698;2022-10-16T02:36:24;3.95;;;1.70;;
22072;SDS011;11202;50.916;4.698;2022-10-16T02:38:51;2.63;;;1.80;;
22072;SDS011;11202;50.916;4.698;2022-10-16T02:41:20;3.40;;;1.40;;
22072;SDS011;11202;50.916;4.698;2022-10-16T02:43:47;4.03;;;2.13;;
22072;SDS011;11202;50.916;4.698;2022-10-16T02:46:12;2.20;;;1.50;;
22072;SDS011;11202;50.916;4.698;2022-10-16T02:48:40;5.22;;;1.60;;
22072;SDS011;11202;50.916;4.698;2022-10-16T02:51:07;3.42;;;1.52;;
22072;SDS011;11202;50.916;4.698;2022-10-16T02:53:38;3.00;;;1.55;;
22072;SDS011;11202;50.916;4.698;2022-10-16T02:56:04;3.22;;;2.33;;
22072;SDS011;11202;50.916;4.698;2022-10-16T02:58:32;5.13;;;1.60;;
22072;SDS011;11202;50.916;4.698;2022-10-16T03:00:58;3.55;;;1.77;;
22072;SDS011;11202;50.916;4.698;2022-10-16T03:03:26;3.25;;;1.70;;
22072;SDS011;11202;50.916;4.698;2022-10-16T03:05:52;3.20;;;1.75;;
22072;SDS011;11202;50.916;4.698;2022-10-16T03:08:18;3.22;;;1.42;;
22072;SDS011;11202;50.916;4.698;2022-10-16T03:10:50;4.03;;;1.80;;
22072;SDS011;11202;50.916;4.698;2022-10-16T03:13:17;1.95;;;1.70;;
22072;SDS011;11202;50.916;4.698;2022-10-16T03:15:45;6.38;;;1.77;;
22072;SDS011;11202;50.916;4.698;2022-10-16T03:18:10;2.83;;;1.90;;
22072;SDS011;11202;50.916;4.698;2022-10-16T03:20:36;4.13;;;1.67;;
22072;SDS011;11202;50.916;4.698;2022-10-16T03:23:05;3.37;;;1.97;;
22072;SDS011;11202;50.916;4.698;2022-10-16T03:25:33;3.65;;;1.80;;
22072;SDS011;11202;50.916;4.698;2022-10-16T03:28:01;2.05;;;1.40;;
22072;SDS011;11202;50.916;4.698;2022-10-16T03:30:28;5.43;;;1.90;;
22072;SDS011;11202;50.916;4.698;2022-10-16T03:32:56;2.10;;;1.80;;
22072;SDS011;11202;50.916;4.698;2022-10-16T03:35:24;4.50;;;1.90;;
22072;SDS011;11202;50.916;4.698;2022-10-16T03:37:52;3.63;;;2.05;;
22072;SDS011;11202;50.916;4.698;2022-10-16T03:40:18;2.65;;;1.70;;
22072;SDS011;11202;50.916;4.698;2022-10-16T03:42:44;3.45;;;1.92;;
22072;SDS011;11202;50.916;4.698;2022-10-16T03:45:12;2.97;;;1.92;;
22072;SDS011;11202;50.916;4.698;2022-10-16T03:47:38;5.65;;;2.10;;
22072;SDS011;11202;50.916;4.698;2022-10-16T03:50:04;3.13;;;1.77;;
22072;SDS011;11202;50.916;4.698;2022-10-16T03:52:30;2.22;;;1.60;;
22072;SDS011;11202;50.916;4.698;2022-10-16T03:54:57;4.40;;;1.80;;
22072;SDS011;11202;50.916;4.698;2022-10-16T03:57:27;4.03;;;1.90;;
22072;SDS011;11202;50.916;4.698;2022-10-16T03:59:53;3.78;;;2.00;;
22072;SDS011;11202;50.916;4.698;2022-10-16T04:02:19;2.83;;;1.70;;
22072;SDS011;11202;50.916;4.698;2022-10-16T04:04:45;6.22;;;2.28;;
22072;SDS011;11202;50.916;4.698;2022-10-16T04:07:13;3.78;;;2.15;;
22072;SDS011;11202;50.916;4.698;2022-10-16T04:09:41;3.40;;;1.75;;
22072;SDS011;11202;50.916;4.698;2022-10-16T04:12:07;4.13;;;2.10;;
22072;SDS011;11202;50.916;4.698;2022-10-16T04:14:33;6.07;;;1.90;;
22072;SDS011;11202;50.916;4.698;2022-10-16T04:17:01;5.53;;;1.98;;
22072;SDS011;11202;50.916;4.698;2022-10-16T04:19:27;3.30;;;2.17;;
22072;SDS011;11202;50.916;4.698;2022-10-16T04:21:53;3.15;;;2.00;;
22072;SDS011;11202;50.916;4.698;2022-10-16T04:24:19;5.50;;;2.38;;
22072;SDS011;11202;50.916;4.698;2022-10-16T04:26:47;6.00;;;2.28;;
22072;SDS011;11202;50.916;4.698;2022-10-16T04:29:13;5.40;;;2.10;;
22072;SDS011;11202;50.916;4.698;2022-10-16T04:31:38;7.75;;;1.90;;
22072;SDS011;11202;50.916;4.698;2022-10-16T04:34:07;4.05;;;2.28;;
22072;SDS011;11202;50.916;4.698;2022-10-16T04:36:35;4.40;;;2.30;;
22072;SDS011;11202;50.916;4.698;2022-10-16T04:39:00;3.78;;;2.20;;
22072;SDS011;11202;50.916;4.698;2022-10-16T04:41:26;4.35;;;2.10;;
22072;SDS011;11202;50.916;4.698;2022-10-16T04:43:52;3.83;;;2.47;;
22072;SDS011;11202;50.916;4.698;2022-10-16T04:46:17;8.25;;;2.30;;
22072;SDS011;11202;50.916;4.698;2022-10-16T04:48:43;5.95;;;2.50;;
22072;SDS011;11202;50.916;4.698;2022-10-16T04:51:09;3.72;;;2.30;;
22072;SDS011;11202;50.916;4.698;2022-10-16T04:53:36;5.07;;;2.22;;
22072;SDS011;11202;50.916;4.698;2022-10-16T04:56:02;8.43;;;2.50;;
22072;SDS011;11202;50.916;4.698;2022-10-16T04:58:28;6.63;;;2.28;;
22072;SDS011;11202;50.916;4.698;2022-10-16T05:00:53;5.07;;;2.30;;
22072;SDS011;11202;50.916;4.698;2022-10-16T05:03:19;6.05;;;2.72;;
22072;SDS011;11202;50.916;4.698;2022-10-16T05:05:47;6.25;;;2.65;;
22072;SDS011;11202;50.916;4.698;2022-10-16T05:08:16;6.35;;;2.50;;
22072;SDS011;11202;50.916;4.698;2022-10-16T05:10:44;6.10;;;2.33;;
22072;SDS011;11202;50.916;4.698;2022-10-16T05:13:13;5.47;;;2.45;;
22072;SDS011;11202;50.916;4.698;2022-10-16T05:15:39;8.57;;;2.35;;
22072;SDS011;11202;50.916;4.698;2022-10-16T05:18:05;5.03;;;2.55;;
22072;SDS011;11202;50.916;4.698;2022-10-16T05:20:32;7.13;;;2.60;;
22072;SDS011;11202;50.916;4.698;2022-10-16T05:22:58;8.25;;;2.80;;
22072;SDS011;11202;50.916;4.698;2022-10-16T05:25:24;4.30;;;2.70;;
22072;SDS011;11202;50.916;4.698;2022-10-16T05:27:49;6.82;;;2.53;;
22072;SDS011;11202;50.916;4.698;2022-10-16T05:30:16;6.05;;;2.60;;
22072;SDS011;11202;50.916;4.698;2022-10-16T05:32:46;6.25;;;2.75;;
22072;SDS011;11202;50.916;4.698;2022-10-16T05:35:13;6.32;;;2.95;;
22072;SDS011;11202;50.916;4.698;2022-10-16T05:37:39;5.38;;;2.85;;
22072;SDS011;11202;50.916;4.698;2022-10-16T05:40:07;3.72;;;2.70;;
22072;SDS011;11202;50.916;4.698;2022-10-16T05:42:33;5.47;;;2.53;;
22072;SDS011;11202;50.916;4.698;2022-10-16T05:44:59;8.00;;;2.97;;
22072;SDS011;11202;50.916;4.698;2022-10-16T05:47:25;4.93;;;2.80;;
22072;SDS011;11202;50.916;4.698;2022-10-16T05:49:53;4.97;;;2.83;;
22072;SDS011;11202;50.916;4.698;2022-10-16T05:52:19;5.40;;;2.80;;
22072;SDS011;11202;50.916;4.698;2022-10-16T05:54:44;4.78;;;2.90;;
22072;SDS011;11202;50.916;4.698;2022-10-16T05:57:10;3.20;;;2.53;;
22072;SDS011;11202;50.916;4.698;2022-10-16T05:59:39;4.90;;;3.10;;
22072;SDS011;11202;50.916;4.698;2022-10-16T06:02:05;6.97;;;3.03;;
22072;SDS011;11202;50.916;4.698;2022-10-16T06:04:30;4.95;;;2.65;;
22072;SDS011;11202;50.916;4.698;2022-10-16T06:06:59;3.60;;;2.65;;
22072;SDS011;11202;50.916;4.698;2022-10-16T06:09:28;3.53;;;2.53;;
22072;SDS011;11202;50.916;4.698;2022-10-16T06:11:54;4.53;;;2.78;;
22072;SDS011;11202;50.916;4.698;2022-10-16T06:14:20;5.90;;;2.85;;
22072;SDS011;11202;50.916;4.698;2022-10-16T06:16:50;4.13;;;2.78;;
22072;SDS011;11202;50.916;4.698;2022-10-16T06:19:16;3.58;;;2.50;;
22072;SDS011;11202;50.916;4.698;2022-10-16T06:21:42;4.85;;;2.78;;
22072;SDS011;11202;50.916;4.698;2022-10-16T06:24:09;7.28;;;2.90;;
22072;SDS011;11202;50.916;4.698;2022-10-16T06:26:34;3.40;;;2.70;;
22072;SDS011;11202;50.916;4.698;2022-10-16T06:29:02;5.60;;;3.08;;
22072;SDS011;11202;50.916;4.698;2022-10-16T06:31:28;5.22;;;2.88;;
22072;SDS011;11202;50.916;4.698;2022-10-16T06:33:56;4.90;;;2.75;;
22072;SDS011;11202;50.916;4.698;2022-10-16T06:36:23;3.78;;;2.90;;
22072;SDS011;11202;50.916;4.698;2022-10-16T06:38:50;5.35;;;3.30;;
22072;SDS011;11202;50.916;4.698;2022-10-16T06:41:18;3.60;;;2.60;;
22072;SDS011;11202;50.916;4.698;2022-10-16T06:43:48;6.78;;;3.20;;
22072;SDS011;11202;50.916;4.698;2022-10-16T06:46:17;4.43;;;2.93;;
22072;SDS011;11202;50.916;4.698;2022-10-16T06:48:46;8.38;;;3.45;;
22072;SDS011;11202;50.916;4.698;2022-10-16T06:51:13;8.23;;;3.63;;
22072;SDS011;11202;50.916;4.698;2022-10-16T06:53:43;4.53;;;3.20;;
22072;SDS011;11202;50.916;4.698;2022-10-16T06:56:11;6.38;;;3.10;;
22072;SDS011;11202;50.916;4.698;2022-10-16T06:58:40;6.78;;;3.00;;
22072;SDS011;11202;50.916;4.698;2022-10-16T07:01:07;5.30;;;3.35;;
22072;SDS011;11202;50.916;4.698;2022-10-16T07:03:33;6.80;;;3.50;;
22072;SDS011;11202;50.916;4.698;2022-10-16T07:06:01;5.50;;;3.17;;
22072;SDS011;11202;50.916;4.698;2022-10-16T07:08:35;6.22;;;3.00;;
22072;SDS011;11202;50.916;4.698;2022-10-16T07:11:03;9.23;;;2.92;;
22072;SDS011;11202;50.916;4.698;2022-10-16T07:13:37;5.88;;;2.42;;
22072;SDS011;11202;50.916;4.698;2022-10-16T07:16:07;3.03;;;2.00;;
22072;SDS011;11202;50.916;4.698;2022-10-16T07:18:35;2.28;;;1.70;;
22072;SDS011;11202;50.916;4.698;2022-10-16T07:21:08;2.43;;;1.40;;
22072;SDS011;11202;50.916;4.698;2022-10-16T07:23:44;8.10;;;1.90;;
22072;SDS011;11202;50.916;4.698;2022-10-16T07:26:12;5.03;;;1.73;;
22072;SDS011;11202;50.916;4.698;2022-10-16T07:28:38;8.38;;;2.15;;
22072;SDS011;11202;50.916;4.698;2022-10-16T07:31:11;5.35;;;2.35;;
22072;SDS011;11202;50.916;4.698;2022-10-16T07:33:39;3.60;;;1.90;;
22072;SDS011;11202;50.916;4.698;2022-10-16T07:36:06;5.55;;;2.35;;
22072;SDS011;11202;50.916;4.698;2022-10-16T07:38:35;5.55;;;2.40;;
22072;SDS011;11202;50.916;4.698;2022-10-16T07:41:02;5.53;;;1.90;;
22072;SDS011;11202;50.916;4.698;2022-10-16T07:45:57;6.93;;;2.03;;
22072;SDS011;11202;50.916;4.698;2022-10-16T07:48:24;4.60;;;1.90;;
22072;SDS011;11202;50.916;4.698;2022-10-16T07:50:58;3.58;;;2.17;;
22072;SDS011;11202;50.916;4.698;2022-10-16T07:53:26;4.53;;;2.05;;
22072;SDS011;11202;50.916;4.698;2022-10-16T07:55:56;4.32;;;1.80;;
22072;SDS011;11202;50.916;4.698;2022-10-16T07:58:23;5.10;;;1.83;;
22072;SDS011;11202;50.916;4.698;2022-10-16T08:00:49;2.72;;;1.80;;
22072;SDS011;11202;50.916;4.698;2022-10-16T08:03:14;3.10;;;1.70;;
22072;SDS011;11202;50.916;4.698;2022-10-16T08:05:40;2.70;;;1.85;;
22072;SDS011;11202;50.916;4.698;2022-10-16T08:08:06;8.30;;;1.73;;
22072;SDS011;11202;50.916;4.698;2022-10-16T08:10:36;2.33;;;1.60;;
22072;SDS011;11202;50.916;4.698;2022-10-16T08:13:04;2.60;;;1.60;;
22072;SDS011;11202;50.916;4.698;2022-10-16T08:15:30;5.75;;;1.88;;
22072;SDS011;11202;50.916;4.698;2022-10-16T08:18:00;3.53;;;1.83;;
22072;SDS011;11202;50.916;4.698;2022-10-16T08:20:28;4.43;;;1.70;;
22072;SDS011;11202;50.916;4.698;2022-10-16T08:22:55;4.40;;;1.60;;
22072;SDS011;11202;50.916;4.698;2022-10-16T08:25:21;4.15;;;1.67;;
22072;SDS011;11202;50.916;4.698;2022-10-16T08:27:51;5.05;;;1.30;;
22072;SDS011;11202;50.916;4.698;2022-10-16T08:30:18;5.00;;;1.20;;
22072;SDS011;11202;50.916;4.698;2022-10-16T08:32:45;3.97;;;1.65;;
22072;SDS011;11202;50.916;4.698;2022-10-16T08:35:13;3.28;;;1.48;;
22072;SDS011;11202;50.916;4.698;2022-10-16T08:37:40;4.05;;;1.42;;
22072;SDS011;11202;50.916;4.698;2022-10-16T08:40:16;3.67;;;1.40;;
22072;SDS011;11202;50.916;4.698;2022-10-16T08:50:52;4.82;;;1.42;;
22072;SDS011;11202;50.916;4.698;2022-10-16T08:53:24;7.40;;;1.60;;
22072;SDS011;11202;50.916;4.698;2022-10-16T08:55:54;5.47;;;1.60;;
22072;SDS011;11202;50.916;4.698;2022-10-16T08:58:26;4.65;;;1.63;;
22072;SDS011;11202;50.916;4.698;2022-10-16T09:00:57;3.17;;;0.90;;
22072;SDS011;11202;50.916;4.698;2022-10-16T09:06:05;3.50;;;1.42;;
22072;SDS011;11202;50.916;4.698;2022-10-16T09:09:02;4.97;;;1.55;;
22072;SDS011;11202;50.916;4.698;2022-10-16T09:17:30;6.93;;;1.05;;
22072;SDS011;11202;50.916;4.698;2022-10-16T09:23:14;7.60;;;1.38;;
22072;SDS011;11202;50.916;4.698;2022-10-16T09:25:46;4.53;;;1.23;;
22072;SDS011;11202;50.916;4.698;2022-10-16T09:28:16;5.97;;;1.50;;
22072;SDS011;11202;50.916;4.698;2022-10-16T09:30:43;6.72;;;1.55;;
22072;SDS011;11202;50.916;4.698;2022-10-16T09:33:10;4.22;;;1.13;;
22072;SDS011;11202;50.916;4.698;2022-10-16T09:35:38;5.82;;;1.35;;
22072;SDS011;11202;50.916;4.698;2022-10-16T09:38:09;6.68;;;1.13;;
22072;SDS011;11202;50.916;4.698;2022-10-16T09:46:28;5.70;;;1.38;;
22072;SDS011;11202;50.916;4.698;2022-10-16T09:49:04;7.07;;;1.33;;
22072;SDS011;11202;50.916;4.698;2022-10-16T09:51:45;6.85;;;1.15;;
22072;SDS011;11202;50.916;4.698;2022-10-16T09:54:15;6.25;;;1.30;;
22072;SDS011;11202;50.916;4.698;2022-10-16T09:56:43;11.00;;;1.98;;
22072;SDS011;11202;50.916;4.698;2022-10-16T09:59:20;6.38;;;1.00;;
22072;SDS011;11202;50.916;4.698;2022-10-16T10:04:22;7.10;;;1.30;;
22072;SDS011;11202;50.916;4.698;2022-10-16T10:06:55;7.28;;;1.55;;
22072;SDS011;11202;50.916;4.698;2022-10-16T10:09:25;6.78;;;1.40;;
22072;SDS011;11202;50.916;4.698;2022-10-16T10:12:23;8.25;;;1.25;;
22072;SDS011;11202;50.916;4.698;2022-10-16T10:14:53;5.10;;;1.30;;
22072;SDS011;11202;50.916;4.698;2022-10-16T10:17:22;7.65;;;1.70;;
22072;SDS011;11202;50.916;4.698;2022-10-16T10:19:51;6.55;;;1.00;;
22072;SDS011;11202;50.916;4.698;2022-10-16T10:27:48;5.75;;;1.17;;
22072;SDS011;11202;50.916;4.698;2022-10-16T10:30:27;5.85;;;1.73;;
22072;SDS011;11202;50.916;4.698;2022-10-16T10:33:12;7.90;;;2.13;;
22072;SDS011;11202;50.916;4.698;2022-10-16T10:46:41;6.47;;;1.42;;
22072;SDS011;11202;50.916;4.698;2022-10-16T10:49:19;9.52;;;1.63;;
22072;SDS011;11202;50.916;4.698;2022-10-16T11:02:22;2.83;;;1.20;;
22072;SDS011;11202;50.916;4.698;2022-10-16T11:05:04;2.80;;;1.05;;
22072;SDS011;11202;50.916;4.698;2022-10-16T11:07:58;4.75;;;1.38;;
22072;SDS011;11202;50.916;4.698;2022-10-16T11:10:29;4.70;;;1.05;;
22072;SDS011;11202;50.916;4.698;2022-10-16T11:13:24;5.00;;;1.30;;
22072;SDS011;11202;50.916;4.698;2022-10-16T11:15:55;5.53;;;1.13;;
22072;SDS011;11202;50.916;4.698;2022-10-16T11:18:26;8.00;;;1.17;;
22072;SDS011;11202;50.916;4.698;2022-10-16T11:21:11;4.55;;;1.13;;
22072;SDS011;11202;50.916;4.698;2022-10-16T11:23:42;5.45;;;1.10;;
22072;SDS011;11202;50.916;4.698;2022-10-16T11:26:26;4.35;;;1.00;;
22072;SDS011;11202;50.916;4.698;2022-10-16T11:28:56;5.03;;;0.90;;
22072;SDS011;11202;50.916;4.698;2022-10-16T11:31:37;4.32;;;1.02;;
22072;SDS011;11202;50.916;4.698;2022-10-16T11:34:12;4.45;;;1.20;;
22072;SDS011;11202;50.916;4.698;2022-10-16T11:37:08;6.32;;;1.20;;
22072;SDS011;11202;50.916;4.698;2022-10-16T11:39:35;3.22;;;1.13;;
22072;SDS011;11202;50.916;4.698;2022-10-16T11:47:09;2.08;;;0.80;;
22072;SDS011;11202;50.916;4.698;2022-10-16T11:49:41;7.38;;;1.50;;
22072;SDS011;11202;50.916;4.698;2022-10-16T11:52:17;3.95;;;1.23;;
22072;SDS011;11202;50.916;4.698;2022-10-16T11:55:03;6.75;;;1.00;;
22072;SDS011;11202;50.916;4.698;2022-10-16T11:57:40;4.53;;;1.00;;
22072;SDS011;11202;50.916;4.698;2022-10-16T12:08:25;14.25;;;1.63;;
22072;SDS011;11202;50.916;4.698;2022-10-16T12:10:52;5.72;;;1.10;;
22072;SDS011;11202;50.916;4.698;2022-10-16T12:16:19;3.10;;;1.02;;
22072;SDS011;11202;50.916;4.698;2022-10-16T12:18:47;3.80;;;0.77;;
22072;SDS011;11202;50.916;4.698;2022-10-16T12:21:14;3.75;;;1.20;;
22072;SDS011;11202;50.916;4.698;2022-10-16T12:26:23;3.45;;;0.90;;
22072;SDS011;11202;50.916;4.698;2022-10-16T12:28:54;6.10;;;1.80;;
22072;SDS011;11202;50.916;4.698;2022-10-16T12:31:39;9.77;;;1.95;;
22072;SDS011;11202;50.916;4.698;2022-10-16T12:34:23;2.00;;;1.17;;
22072;SDS011;11202;50.916;4.698;2022-10-16T12:37:07;5.07;;;1.30;;
22072;SDS011;11202;50.916;4.698;2022-10-16T12:39:46;3.95;;;2.08;;
22072;SDS011;11202;50.916;4.698;2022-10-16T12:44:51;7.28;;;1.80;;
22072;SDS011;11202;50.916;4.698;2022-10-16T12:50:00;9.32;;;4.03;;
22072;SDS011;11202;50.916;4.698;2022-10-16T12:52:37;3.38;;;1.20;;
22072;SDS011;11202;50.916;4.698;2022-10-16T12:55:05;4.70;;;1.33;;
22072;SDS011;11202;50.916;4.698;2022-10-16T13:00:28;4.82;;;1.00;;
22072;SDS011;11202;50.916;4.698;2022-10-16T13:06:13;3.67;;;1.20;;
22072;SDS011;11202;50.916;4.698;2022-10-16T13:11:41;4.38;;;1.00;;
22072;SDS011;11202;50.916;4.698;2022-10-16T13:14:46;7.95;;;0.77;;
22072;SDS011;11202;50.916;4.698;2022-10-16T13:28:04;4.20;;;1.30;;
22072;SDS011;11202;50.916;4.698;2022-10-16T13:30:42;5.07;;;1.30;;
22072;SDS011;11202;50.916;4.698;2022-10-16T13:35:49;4.57;;;1.10;;
22072;SDS011;11202;50.916;4.698;2022-10-16T13:38:18;9.38;;;1.45;;
22072;SDS011;11202;50.916;4.698;2022-10-16T13:40:56;3.53;;;1.40;;
22072;SDS011;11202;50.916;4.698;2022-10-16T13:43:36;5.82;;;1.70;;
22072;SDS011;11202;50.916;4.698;2022-10-16T13:46:05;4.03;;;0.80;;
22072;SDS011;11202;50.916;4.698;2022-10-16T13:48:36;4.10;;;1.00;;
22072;SDS011;11202;50.916;4.698;2022-10-16T13:51:03;2.53;;;1.00;;
22072;SDS011;11202;50.916;4.698;2022-10-16T13:53:30;5.85;;;1.30;;
22072;SDS011;11202;50.916;4.698;2022-10-16T13:55:58;9.23;;;1.40;;
22072;SDS011;11202;50.916;4.698;2022-10-16T13:58:45;5.43;;;1.15;;
22072;SDS011;11202;50.916;4.698;2022-10-16T14:01:18;7.18;;;1.42;;
22072;SDS011;11202;50.916;4.698;2022-10-16T14:03:47;10.60;;;1.90;;
22072;SDS011;11202;50.916;4.698;2022-10-16T14:06:15;7.70;;;1.35;;
22072;SDS011;11202;50.916;4.698;2022-10-16T14:08:48;8.55;;;1.35;;
22072;SDS011;11202;50.916;4.698;2022-10-16T14:11:25;7.00;;;1.67;;
22072;SDS011;11202;50.916;4.698;2022-10-16T14:13:51;2.67;;;1.20;;
22072;SDS011;11202;50.916;4.698;2022-10-16T14:16:22;7.55;;;1.58;;
22072;SDS011;11202;50.916;4.698;2022-10-16T14:23:50;5.43;;;1.48;;
22072;SDS011;11202;50.916;4.698;2022-10-16T14:26:17;12.13;;;2.92;;
22072;SDS011;11202;50.916;4.698;2022-10-16T14:28:46;6.60;;;1.20;;
22072;SDS011;11202;50.916;4.698;2022-10-16T14:33:44;4.78;;;1.35;;
22072;SDS011;11202;50.916;4.698;2022-10-16T14:36:14;5.93;;;1.30;;
22072;SDS011;11202;50.916;4.698;2022-10-16T14:39:26;5.35;;;1.40;;
22072;SDS011;11202;50.916;4.698;2022-10-16T14:41:44;3.05;;;1.05;;
22072;SDS011;11202;50.916;4.698;2022-10-16T14:44:12;5.60;;;1.40;;
22072;SDS011;11202;50.916;4.698;2022-10-16T14:46:42;4.78;;;1.30;;
22072;SDS011;11202;50.916;4.698;2022-10-16T14:51:38;10.80;;;1.90;;
22072;SDS011;11202;50.916;4.698;2022-10-16T14:54:09;8.05;;;1.48;;
22072;SDS011;11202;50.916;4.698;2022-10-16T14:56:57;5.03;;;1.15;;
22072;SDS011;11202;50.916;4.698;2022-10-16T14:59:30;6.55;;;1.08;;
22072;SDS011;11202;50.916;4.698;2022-10-16T15:02:15;15.80;;;1.67;;
22072;SDS011;11202;50.916;4.698;2022-10-16T15:05:10;7.38;;;1.52;;
22072;SDS011;11202;50.916;4.698;2022-10-16T15:07:36;3.72;;;1.40;;
22072;SDS011;11202;50.916;4.698;2022-10-16T15:10:03;4.47;;;1.33;;
22072;SDS011;11202;50.916;4.698;2022-10-16T15:12:29;4.90;;;1.48;;
22072;SDS011;11202;50.916;4.698;2022-10-16T15:14:58;5.32;;;1.55;;
22072;SDS011;11202;50.916;4.698;2022-10-16T15:17:23;9.38;;;1.80;;
22072;SDS011;11202;50.916;4.698;2022-10-16T15:19:49;4.57;;;1.33;;
22072;SDS011;11202;50.916;4.698;2022-10-16T15:22:16;6.82;;;1.40;;
22072;SDS011;11202;50.916;4.698;2022-10-16T15:24:42;4.55;;;1.27;;
22072;SDS011;11202;50.916;4.698;2022-10-16T15:27:08;4.28;;;1.35;;
22072;SDS011;11202;50.916;4.698;2022-10-16T15:29:34;6.82;;;1.52;;
22072;SDS011;11202;50.916;4.698;2022-10-16T15:31:59;5.45;;;1.55;;
22072;SDS011;11202;50.916;4.698;2022-10-16T15:34:28;5.82;;;1.50;;
22072;SDS011;11202;50.916;4.698;2022-10-16T15:36:54;6.07;;;1.50;;
22072;SDS011;11202;50.916;4.698;2022-10-16T15:39:25;15.02;;;2.67;;
22072;SDS011;11202;50.916;4.698;2022-10-16T15:41:51;8.60;;;1.80;;
22072;SDS011;11202;50.916;4.698;2022-10-16T15:44:19;7.15;;;1.25;;
22072;SDS011;11202;50.916;4.698;2022-10-16T15:46:47;6.27;;;1.93;;
22072;SDS011;11202;50.916;4.698;2022-10-16T15:49:18;3.20;;;1.40;;
22072;SDS011;11202;50.916;4.698;2022-10-16T15:51:43;5.05;;;1.50;;
22072;SDS011;11202;50.916;4.698;2022-10-16T15:54:11;4.60;;;1.20;;
22072;SDS011;11202;50.916;4.698;2022-10-16T15:56:37;4.57;;;1.20;;
22072;SDS011;11202;50.916;4.698;2022-10-16T15:59:03;3.90;;;1.40;;
22072;SDS011;11202;50.916;4.698;2022-10-16T16:01:33;4.97;;;1.20;;
22072;SDS011;11202;50.916;4.698;2022-10-16T16:03:59;10.38;;;1.52;;
22072;SDS011;11202;50.916;4.698;2022-10-16T16:06:25;3.72;;;1.20;;
22072;SDS011;11202;50.916;4.698;2022-10-16T16:08:54;8.25;;;1.55;;
22072;SDS011;11202;50.916;4.698;2022-10-16T16:11:22;3.30;;;1.75;;
22072;SDS011;11202;50.916;4.698;2022-10-16T16:13:48;6.18;;;1.30;;
22072;SDS011;11202;50.916;4.698;2022-10-16T16:16:15;8.27;;;1.48;;
22072;SDS011;11202;50.916;4.698;2022-10-16T16:18:44;5.30;;;1.58;;
22072;SDS011;11202;50.916;4.698;2022-10-16T16:21:11;6.65;;;1.98;;
22072;SDS011;11202;50.916;4.698;2022-10-16T16:23:38;9.18;;;2.25;;
22072;SDS011;11202;50.916;4.698;2022-10-16T16:26:08;11.93;;;2.40;;
22072;SDS011;11202;50.916;4.698;2022-10-16T16:28:41;10.07;;;2.40;;
22072;SDS011;11202;50.916;4.698;2022-10-16T16:31:10;8.63;;;2.50;;
22072;SDS011;11202;50.916;4.698;2022-10-16T16:33:36;61.85;;;5.32;;
22072;SDS011;11202;50.916;4.698;2022-10-16T16:36:03;6.18;;;2.35;;
22072;SDS011;11202;50.916;4.698;2022-10-16T16:38:33;6.30;;;1.83;;
22072;SDS011;11202;50.916;4.698;2022-10-16T16:41:00;4.78;;;2.08;;
22072;SDS011;11202;50.916;4.698;2022-10-16T16:46:05;6.25;;;2.05;;
22072;SDS011;11202;50.916;4.698;2022-10-16T16:48:31;8.20;;;1.80;;
22072;SDS011;11202;50.916;4.698;2022-10-16T16:51:01;4.93;;;2.15;;
22072;SDS011;11202;50.916;4.698;2022-10-16T16:53:34;7.28;;;2.25;;
22072;SDS011;11202;50.916;4.698;2022-10-16T16:56:02;11.50;;;2.17;;
22072;SDS011;11202;50.916;4.698;2022-10-16T16:58:29;5.90;;;2.00;;
22072;SDS011;11202;50.916;4.698;2022-10-16T17:00:56;7.97;;;2.58;;
22072;SDS011;11202;50.916;4.698;2022-10-16T17:03:25;6.40;;;2.30;;
22072;SDS011;11202;50.916;4.698;2022-10-16T17:05:58;9.55;;;2.40;;
22072;SDS011;11202;50.916;4.698;2022-10-16T17:08:33;10.10;;;3.25;;
22072;SDS011;11202;50.916;4.698;2022-10-16T17:11:00;12.65;;;3.08;;
22072;SDS011;11202;50.916;4.698;2022-10-16T17:13:27;10.98;;;2.65;;